createdAt,value
2019-04-07T00:01:54.571Z,11.58
2019-04-07T00:04:23.716Z,11.50
2019-04-07T00:06:52.526Z,11.42
2019-04-07T00:09:23.220Z,11.37
2019-04-07T00:11:52.021Z,11.33
2019-04-07T00:14:20.765Z,11.38
2019-04-07T00:16:49.725Z,11.45
2019-04-07T00:19:18.649Z,11.33
2019-04-07T00:21:47.898Z,11.32
2019-04-07T00:24:16.744Z,11.20
2019-04-07T00:26:45.421Z,11.11
2019-04-07T00:29:14.498Z,11.09
2019-04-07T00:31:43.211Z,11.02
2019-04-07T00:34:12.147Z,10.96
2019-04-07T00:36:40.930Z,11.00
2019-04-07T00:39:09.694Z,11.06
2019-04-07T00:41:38.733Z,11.21
2019-04-07T00:44:07.461Z,11.16
2019-04-07T00:46:37.130Z,11.14
2019-04-07T00:49:05.873Z,11.04
2019-04-07T00:51:34.576Z,11.00
2019-04-07T00:54:03.490Z,10.97
2019-04-07T00:56:32.479Z,10.99
2019-04-07T00:59:02.862Z,11.02
2019-04-07T01:01:31.791Z,11.22
2019-04-07T01:04:02.181Z,11.51
2019-04-07T01:06:31.105Z,11.70
2019-04-07T01:09:00.252Z,11.72
2019-04-07T01:11:29.381Z,11.81
2019-04-07T01:13:58.221Z,11.68
2019-04-07T01:16:27.371Z,11.53
2019-04-07T01:18:56.011Z,11.54
2019-04-07T01:21:25.825Z,11.63
2019-04-07T01:23:54.538Z,11.73
2019-04-07T01:26:23.894Z,11.82
2019-04-07T01:28:54.511Z,11.74
2019-04-07T01:31:23.155Z,11.82
2019-04-07T01:33:52.169Z,11.72
2019-04-07T01:36:21.474Z,11.79
2019-04-07T01:38:51.167Z,11.85
2019-04-07T01:41:38.278Z,11.78
2019-04-07T01:44:18.074Z,11.73
2019-04-07T01:46:59.503Z,11.82
2019-04-07T01:49:46.811Z,11.77
2019-04-07T01:52:33.711Z,11.61
2019-04-07T01:55:19.463Z,11.44
2019-04-07T01:58:09.821Z,11.40
2019-04-07T02:00:45.869Z,11.44
2019-04-07T02:03:32.887Z,11.43
2019-04-07T02:06:19.776Z,11.41
2019-04-07T02:09:06.096Z,11.43
2019-04-07T02:11:53.057Z,11.41
2019-04-07T02:14:31.299Z,11.32
2019-04-07T02:17:18.259Z,11.36
2019-04-07T02:19:57.481Z,11.35
2019-04-07T02:22:54.687Z,11.20
2019-04-07T02:25:42.763Z,11.10
2019-04-07T02:28:27.685Z,11.12
2019-04-07T02:31:17.450Z,11.04
2019-04-07T02:34:17.735Z,10.96
2019-04-07T02:36:58.130Z,10.90
2019-04-07T02:39:39.134Z,10.86
2019-04-07T02:42:15.388Z,10.72
2019-04-07T02:45:03.683Z,10.75
2019-04-07T02:47:46.950Z,10.62
2019-04-07T02:50:26.644Z,10.72
2019-04-07T02:53:03.722Z,10.44
2019-04-07T02:56:03.674Z,10.37
2019-04-07T02:58:49.953Z,10.34
2019-04-07T03:01:27.927Z,10.34
2019-04-07T03:04:20.807Z,10.41
2019-04-07T03:07:02.835Z,10.52
2019-04-07T03:09:47.503Z,10.65
2019-04-07T03:12:27.588Z,10.61
2019-04-07T03:15:19.244Z,10.61
2019-04-07T03:18:06.960Z,10.52
2019-04-07T03:20:45.741Z,10.63
2019-04-07T03:23:42.515Z,10.65
2019-04-07T03:26:41.118Z,10.59
2019-04-07T03:29:23.780Z,10.55
2019-04-07T03:32:15.821Z,10.51
2019-04-07T03:35:06.435Z,10.56
2019-04-07T03:37:53.380Z,10.50
2019-04-07T03:40:37.146Z,10.45
2019-04-07T03:43:19.403Z,10.60
2019-04-07T03:45:55.303Z,10.66
2019-04-07T03:48:38.031Z,10.65
2019-04-07T03:51:15.183Z,10.60
2019-04-07T03:54:07.061Z,10.61
2019-04-07T03:56:56.534Z,10.54
2019-04-07T03:59:53.777Z,10.36
2019-04-07T04:02:39.281Z,10.23
2019-04-07T04:05:26.116Z,10.23
2019-04-07T04:08:07.457Z,10.39
2019-04-07T04:10:58.083Z,10.45
2019-04-07T04:13:35.961Z,10.46
2019-04-07T04:16:11.146Z,10.54
2019-04-07T04:18:40.627Z,10.46
2019-04-07T04:21:09.629Z,10.37
2019-04-07T04:23:41.543Z,10.37
2019-04-07T04:26:09.662Z,10.21
2019-04-07T04:28:39.020Z,10.16
2019-04-07T04:31:07.945Z,10.07
2019-04-07T04:33:37.728Z,10.05
2019-04-07T04:36:07.950Z,10.07
2019-04-07T04:38:37.037Z,10.05
2019-04-07T04:41:06.877Z,9.97
2019-04-07T04:43:36.024Z,10.15
2019-04-07T04:46:08.670Z,9.89
2019-04-07T04:48:36.051Z,9.74
2019-04-07T04:51:05.356Z,9.79
2019-04-07T04:53:34.902Z,9.64
2019-04-07T04:56:03.849Z,9.51
2019-04-07T04:58:32.794Z,9.35
2019-04-07T05:01:02.257Z,9.26
2019-04-07T05:03:31.800Z,9.20
2019-04-07T05:06:01.407Z,9.10
2019-04-07T05:08:31.166Z,9.06
2019-04-07T05:10:59.992Z,9.07
2019-04-07T05:13:28.636Z,8.98
2019-04-07T05:15:57.361Z,8.95
2019-04-07T05:18:26.849Z,8.89
2019-04-07T05:20:55.590Z,8.92
2019-04-07T05:23:25.116Z,8.80
2019-04-07T05:25:54.505Z,8.86
2019-04-07T05:28:23.525Z,8.87
2019-04-07T05:30:53.388Z,8.85
2019-04-07T05:33:22.166Z,8.94
2019-04-07T05:35:51.633Z,9.04
2019-04-07T05:38:20.324Z,9.11
2019-04-07T05:40:50.036Z,9.37
2019-04-07T05:43:19.301Z,9.51
2019-04-07T05:45:47.949Z,9.72
2019-04-07T05:48:19.551Z,9.80
2019-04-07T05:50:47.374Z,9.75
2019-04-07T05:53:17.014Z,9.77
2019-04-07T05:55:46.873Z,9.95
2019-04-07T05:58:16.212Z,9.94
2019-04-07T06:00:46.960Z,10.05
2019-04-07T06:03:16.291Z,10.10
2019-04-07T06:05:49.184Z,10.24
2019-04-07T06:08:25.759Z,10.47
2019-04-07T06:10:46.380Z,10.61
2019-04-07T06:13:15.742Z,10.77
2019-04-07T06:15:45.739Z,10.86
2019-04-07T06:18:14.988Z,10.91
2019-04-07T06:20:45.355Z,10.92
2019-04-07T06:23:14.166Z,10.89
2019-04-07T06:25:43.974Z,10.99
2019-04-07T06:28:16.329Z,11.10
2019-04-07T06:30:43.996Z,11.26
2019-04-07T06:33:18.768Z,11.25
2019-04-07T06:35:47.875Z,11.14
2019-04-07T06:38:16.735Z,11.15
2019-04-07T06:40:45.935Z,11.18
2019-04-07T06:43:15.651Z,11.27
2019-04-07T06:45:52.738Z,11.41
2019-04-07T06:48:21.240Z,11.46
2019-04-07T06:51:03.876Z,11.46
2019-04-07T06:53:53.656Z,11.57
2019-04-07T06:56:32.186Z,11.82
2019-04-07T06:59:11.871Z,11.80
2019-04-07T07:01:58.694Z,11.78
2019-04-07T07:04:37.712Z,11.88
2019-04-07T07:07:28.232Z,12.05
2019-04-07T07:10:06.783Z,12.07
2019-04-07T07:12:43.889Z,12.24
2019-04-07T07:15:34.480Z,12.36
2019-04-07T07:18:54.794Z,12.58
2019-04-07T07:21:42.523Z,12.70
2019-04-07T07:24:12.328Z,12.63
2019-04-07T07:26:42.845Z,12.60
2019-04-07T07:29:14.699Z,12.76
2019-04-07T07:31:43.615Z,12.72
2019-04-07T07:34:12.308Z,12.87
2019-04-07T07:36:41.727Z,12.91
2019-04-07T07:39:12.558Z,12.99
2019-04-07T07:41:41.441Z,13.16
2019-04-07T07:44:10.233Z,13.22
2019-04-07T07:46:39.735Z,13.20
2019-04-07T07:49:08.584Z,13.43
2019-04-07T07:51:40.544Z,13.47
2019-04-07T07:54:14.175Z,13.58
2019-04-07T07:56:48.598Z,13.57
2019-04-07T07:59:17.904Z,13.61
2019-04-07T08:01:50.316Z,13.53
2019-04-07T08:04:18.420Z,13.62
2019-04-07T08:06:48.054Z,13.71
2019-04-07T08:09:22.029Z,13.72
2019-04-07T08:11:47.846Z,13.79
2019-04-07T08:14:24.594Z,13.84
2019-04-07T08:16:53.365Z,13.84
2019-04-07T08:19:26.013Z,14.11
2019-04-07T08:21:54.109Z,14.20
2019-04-07T08:24:23.283Z,14.28
2019-04-07T08:26:56.302Z,14.36
2019-04-07T08:29:22.967Z,14.29
2019-04-07T08:31:55.222Z,14.35
2019-04-07T08:34:22.308Z,14.46
2019-04-07T08:36:51.099Z,14.57
2019-04-07T08:39:25.160Z,14.61
2019-04-07T08:41:51.809Z,14.79
2019-04-07T08:44:20.553Z,14.80
2019-04-07T08:46:49.688Z,14.95
2019-04-07T08:49:19.209Z,14.88
2019-04-07T08:51:50.573Z,15.03
2019-04-07T08:54:19.955Z,15.18
2019-04-07T08:56:48.711Z,15.30
2019-04-07T08:59:18.298Z,15.36
2019-04-07T09:01:47.720Z,15.28
2019-04-07T09:04:18.155Z,15.39
2019-04-07T09:06:48.775Z,15.53
2019-04-07T09:09:17.893Z,15.54
2019-04-07T09:11:47.065Z,15.60
2019-04-07T09:14:17.367Z,15.61
2019-04-07T09:17:29.309Z,15.66
2019-04-07T09:20:10.751Z,15.81
2019-04-07T09:22:51.554Z,15.73
2019-04-07T09:25:39.996Z,15.84
2019-04-07T09:28:26.495Z,15.93
2019-04-07T09:31:14.918Z,16.06
2019-04-07T09:33:49.947Z,16.02
2019-04-07T09:36:38.146Z,16.15
2019-04-07T09:39:39.461Z,16.22
2019-04-07T09:42:11.295Z,15.99
2019-04-07T09:44:47.349Z,16.31
2019-04-07T09:47:38.142Z,16.33
2019-04-07T09:50:41.960Z,16.34
2019-04-07T09:53:29.612Z,16.32
2019-04-07T09:56:19.104Z,16.39
2019-04-07T09:58:56.807Z,16.56
2019-04-07T10:01:32.921Z,16.60
2019-04-07T10:04:42.564Z,16.65
2019-04-07T10:07:25.662Z,16.61
2019-04-07T10:10:17.151Z,16.58
2019-04-07T10:13:05.593Z,16.72
2019-04-07T10:15:51.010Z,16.75
2019-04-07T10:18:40.171Z,16.82
2019-04-07T10:21:37.158Z,16.98
2019-04-07T10:24:18.543Z,17.03
2019-04-07T10:26:58.858Z,17.16
2019-04-07T10:29:37.685Z,17.26
2019-04-07T10:32:25.815Z,17.30
2019-04-07T10:35:19.588Z,17.22
2019-04-07T10:38:07.460Z,17.36
2019-04-07T10:40:43.852Z,17.40
2019-04-07T10:43:28.933Z,17.53
2019-04-07T10:46:08.742Z,17.52
2019-04-07T10:49:14.665Z,17.56
2019-04-07T10:51:53.384Z,17.60
2019-04-07T10:54:35.644Z,17.64
2019-04-07T10:57:24.265Z,17.72
2019-04-07T11:00:07.469Z,17.90
2019-04-07T11:02:44.289Z,17.94
2019-04-07T11:05:48.023Z,17.93
2019-04-07T11:08:51.782Z,18.00
2019-04-07T11:11:33.185Z,18.11
2019-04-07T11:14:12.028Z,18.19
2019-04-07T11:16:49.934Z,18.11
2019-04-07T11:19:37.702Z,18.15
2019-04-07T11:22:25.566Z,18.18
2019-04-07T11:25:17.128Z,18.20
2019-04-07T11:28:17.839Z,18.23
2019-04-07T11:30:54.328Z,18.32
2019-04-07T11:33:41.412Z,18.40
2019-04-07T11:36:18.767Z,18.26
2019-04-07T11:38:51.732Z,18.25
2019-04-07T11:41:29.387Z,18.35
2019-04-07T11:44:05.367Z,18.49
2019-04-07T11:46:58.051Z,18.64
2019-04-07T11:49:32.815Z,18.80
2019-04-07T11:52:08.173Z,18.73
2019-04-07T11:54:49.542Z,18.85
2019-04-07T11:57:27.836Z,19.02
2019-04-07T12:00:14.638Z,19.15
2019-04-07T12:02:54.500Z,19.14
2019-04-07T12:05:52.247Z,19.13
2019-04-07T12:08:32.368Z,19.39
2019-04-07T12:11:08.419Z,19.32
2019-04-07T12:13:46.731Z,19.18
2019-04-07T12:16:35.087Z,19.26
2019-04-07T12:19:11.292Z,19.26
2019-04-07T12:22:10.412Z,19.45
2019-04-07T12:24:57.488Z,19.41
2019-04-07T12:27:44.592Z,19.42
2019-04-07T12:30:31.610Z,19.21
2019-04-07T12:33:19.078Z,19.33
2019-04-07T12:36:10.360Z,19.48
2019-04-07T12:39:08.280Z,19.53
2019-04-07T12:41:57.244Z,19.50
2019-04-07T12:44:41.823Z,19.60
2019-04-07T12:47:23.785Z,19.71
2019-04-07T12:50:02.572Z,19.85
2019-04-07T12:52:48.771Z,19.80
2019-04-07T12:55:36.144Z,19.74
2019-04-07T12:58:13.272Z,19.70
2019-04-07T13:01:09.593Z,19.68
2019-04-07T13:03:39.548Z,19.77
2019-04-07T13:06:35.261Z,19.73
2019-04-07T13:09:16.185Z,19.85
2019-04-07T13:12:24.706Z,19.85
2019-04-07T13:15:14.073Z,20.00
2019-04-07T13:18:05.790Z,19.91
2019-04-07T13:20:49.239Z,19.67
2019-04-07T13:23:33.000Z,19.73
2019-04-07T13:26:14.231Z,19.49
2019-04-07T13:29:14.611Z,19.63
2019-04-07T13:32:01.315Z,19.90
2019-04-07T13:34:49.776Z,20.05
2019-04-07T13:37:42.182Z,19.87
2019-04-07T13:40:36.235Z,19.79
2019-04-07T13:43:18.701Z,19.84
2019-04-07T13:46:30.652Z,20.08
2019-04-07T13:49:11.810Z,19.90
2019-04-07T13:52:17.569Z,19.70
2019-04-07T13:54:56.948Z,19.66
2019-04-07T13:58:00.435Z,19.84
2019-04-07T14:00:47.915Z,20.03
2019-04-07T14:03:25.508Z,20.20
2019-04-07T14:06:17.581Z,20.34
2019-04-07T14:08:57.624Z,20.34
2019-04-07T14:12:00.270Z,20.25
2019-04-07T14:14:41.281Z,20.31
2019-04-07T14:17:20.809Z,20.23
2019-04-07T14:20:03.901Z,20.02
2019-04-07T14:22:58.143Z,19.95
2019-04-07T14:25:45.339Z,19.90
2019-04-07T14:28:31.585Z,20.05
2019-04-07T14:31:25.182Z,20.18
2019-04-07T14:34:03.963Z,20.08
2019-04-07T14:36:50.455Z,20.00
2019-04-07T14:39:30.300Z,20.02
2019-04-07T14:42:20.863Z,19.90
2019-04-07T14:44:55.577Z,20.04
2019-04-07T14:47:41.432Z,20.04
2019-04-07T14:50:25.233Z,20.05
2019-04-07T14:53:16.501Z,20.06
2019-04-07T14:56:04.591Z,20.01
2019-04-07T14:58:51.090Z,19.87
2019-04-07T15:01:44.735Z,19.66
2019-04-07T15:04:14.078Z,19.60
2019-04-07T15:06:42.845Z,19.65
2019-04-07T15:09:27.070Z,19.69
2019-04-07T15:12:01.600Z,19.68
2019-04-07T15:14:32.686Z,19.65
2019-04-07T15:17:01.368Z,19.46
2019-04-07T15:19:31.062Z,19.50
2019-04-07T15:22:02.310Z,19.33
2019-04-07T15:24:30.715Z,19.31
2019-04-07T15:27:00.366Z,19.31
2019-04-07T15:29:29.943Z,19.24
2019-04-07T15:31:59.689Z,19.42
2019-04-07T15:34:29.649Z,19.34
2019-04-07T15:36:59.071Z,19.23
2019-04-07T15:39:30.309Z,19.20
2019-04-07T15:41:58.579Z,19.41
2019-04-07T15:44:27.260Z,19.30
2019-04-07T15:46:56.568Z,19.34
2019-04-07T15:49:27.376Z,19.35
2019-04-07T15:51:56.170Z,19.25
2019-04-07T15:54:25.429Z,19.30
2019-04-07T15:56:55.020Z,19.29
2019-04-07T15:59:24.811Z,19.23
2019-04-07T16:01:56.189Z,19.14
2019-04-07T16:04:28.373Z,19.04
2019-04-07T16:06:56.611Z,18.95
2019-04-07T16:09:35.918Z,18.85
2019-04-07T16:11:58.291Z,18.71
2019-04-07T16:14:27.420Z,18.62
2019-04-07T16:17:00.301Z,18.63
2019-04-07T16:19:37.370Z,18.66
2019-04-07T16:22:04.804Z,18.78
2019-04-07T16:24:33.488Z,18.81
2019-04-07T16:27:05.409Z,18.65
2019-04-07T16:29:33.038Z,18.54
2019-04-07T16:32:02.980Z,18.53
2019-04-07T16:34:32.042Z,18.54
2019-04-07T16:37:03.881Z,18.53
2019-04-07T16:39:34.617Z,18.52
2019-04-07T16:42:03.257Z,18.65
2019-04-07T16:44:36.277Z,18.58
2019-04-07T16:47:04.122Z,18.68
2019-04-07T16:49:32.916Z,18.66
2019-04-07T16:52:03.421Z,18.80
2019-04-07T16:54:32.688Z,19.06
2019-04-07T16:57:02.032Z,19.01
2019-04-07T16:59:31.695Z,18.91
2019-04-07T17:02:00.809Z,18.71
2019-04-07T17:04:30.040Z,18.49
2019-04-07T17:07:04.015Z,18.26
2019-04-07T17:09:30.165Z,18.10
2019-04-07T17:11:58.994Z,17.90
2019-04-07T17:14:34.470Z,17.63
2019-04-07T17:17:00.977Z,17.51
2019-04-07T17:19:30.131Z,17.50
2019-04-07T17:22:01.812Z,17.27
2019-04-07T17:24:30.629Z,17.30
2019-04-07T17:27:00.488Z,17.16
2019-04-07T17:29:30.147Z,17.09
2019-04-07T17:32:01.686Z,16.95
2019-04-07T17:34:30.442Z,16.87
2019-04-07T17:36:59.211Z,16.70
2019-04-07T17:39:44.986Z,16.55
2019-04-07T17:42:15.540Z,16.55
2019-04-07T17:45:02.165Z,16.54
2019-04-07T17:47:50.165Z,16.51
2019-04-07T17:50:36.921Z,16.40
2019-04-07T17:53:15.781Z,16.43
2019-04-07T17:56:01.265Z,16.26
2019-04-07T17:58:44.216Z,16.16
2019-04-07T18:01:32.111Z,16.03
2019-04-07T18:04:17.336Z,16.08
2019-04-07T18:07:06.215Z,15.96
2019-04-07T18:09:43.849Z,15.94
2019-04-07T18:12:38.954Z,15.95
2019-04-07T18:15:27.436Z,15.81
2019-04-07T18:18:21.166Z,15.61
2019-04-07T18:20:54.085Z,15.73
2019-04-07T18:24:01.197Z,15.49
2019-04-07T18:26:40.460Z,15.47
2019-04-07T18:29:20.122Z,15.49
2019-04-07T18:32:17.647Z,15.31
2019-04-07T18:35:07.607Z,15.37
2019-04-07T18:37:48.350Z,15.24
2019-04-07T18:40:33.833Z,15.17
2019-04-07T18:43:21.440Z,15.09
2019-04-07T18:46:24.900Z,15.02
2019-04-07T18:49:09.117Z,15.14
2019-04-07T18:51:53.733Z,15.06
2019-04-07T18:54:47.959Z,14.97
2019-04-07T18:57:36.058Z,14.94
2019-04-07T19:00:24.549Z,14.92
2019-04-07T19:03:10.529Z,14.98
2019-04-07T19:05:53.357Z,14.77
2019-04-07T19:08:37.235Z,14.72
2019-04-07T19:11:28.251Z,14.76
2019-04-07T19:14:26.838Z,14.64
2019-04-07T19:16:49.316Z,14.57
2019-04-07T19:19:34.381Z,14.52
2019-04-07T19:22:24.777Z,14.52
2019-04-07T19:25:13.102Z,14.62
2019-04-07T19:28:04.476Z,14.56
2019-04-07T19:30:46.172Z,14.72
2019-04-07T19:33:32.345Z,14.54
2019-04-07T19:36:17.447Z,14.47
2019-04-07T19:38:54.301Z,14.59
2019-04-07T19:41:31.512Z,14.68
2019-04-07T19:44:08.333Z,14.64
2019-04-07T19:46:43.881Z,14.66
2019-04-07T19:49:37.605Z,14.72
2019-04-07T19:52:36.269Z,14.67
2019-04-07T19:55:30.392Z,14.55
2019-04-07T19:58:38.608Z,14.38
2019-04-07T20:01:27.393Z,14.37
2019-04-07T20:04:32.738Z,14.50
2019-04-07T20:07:20.188Z,14.36
2019-04-07T20:10:01.779Z,14.45
2019-04-07T20:12:56.257Z,14.41
2019-04-07T20:15:45.043Z,14.31
2019-04-07T20:18:26.914Z,14.25
2019-04-07T20:21:02.952Z,14.19
2019-04-07T20:23:50.739Z,14.16
2019-04-07T20:26:37.315Z,14.18
2019-04-07T20:29:33.850Z,14.16
2019-04-07T20:32:16.976Z,14.22
2019-04-07T20:34:59.086Z,14.19
2019-04-07T20:37:47.190Z,14.23
2019-04-07T20:40:39.649Z,14.21
2019-04-07T20:43:25.423Z,14.13
2019-04-07T20:46:27.419Z,14.11
2019-04-07T20:49:30.806Z,13.98
2019-04-07T20:52:42.782Z,13.98
2019-04-07T20:55:20.963Z,13.90
2019-04-07T20:58:21.613Z,13.79
2019-04-07T21:01:17.636Z,13.73
2019-04-07T21:03:53.108Z,13.71
2019-04-07T21:06:52.374Z,13.78
2019-04-07T21:09:35.808Z,13.77
2019-04-07T21:12:23.782Z,13.77
2019-04-07T21:15:18.422Z,13.79
2019-04-07T21:18:04.168Z,13.72
2019-04-07T21:20:54.765Z,13.49
2019-04-07T21:23:36.144Z,13.48
2019-04-07T21:26:13.468Z,13.51
2019-04-07T21:28:52.512Z,13.44
2019-04-07T21:31:46.762Z,13.46
2019-04-07T21:34:20.803Z,13.43
2019-04-07T21:37:23.905Z,13.42
2019-04-07T21:40:26.663Z,13.39
2019-04-07T21:43:18.891Z,13.30
2019-04-07T21:46:11.644Z,13.33
2019-04-07T21:49:06.135Z,13.35
2019-04-07T21:51:57.245Z,13.23
2019-04-07T21:54:39.492Z,13.37
2019-04-07T21:57:33.290Z,13.41
2019-04-07T22:00:11.108Z,13.37
2019-04-07T22:02:54.907Z,13.30
2019-04-07T22:05:29.816Z,13.21
2019-04-07T22:08:08.021Z,13.20
2019-04-07T22:10:34.056Z,13.12
2019-04-07T22:13:04.997Z,13.09
2019-04-07T22:15:43.934Z,13.10
2019-04-07T22:18:07.557Z,12.99
2019-04-07T22:20:34.979Z,13.01
2019-04-07T22:23:06.228Z,12.85
2019-04-07T22:25:40.953Z,12.82
2019-04-07T22:28:10.164Z,12.74
2019-04-07T22:30:42.367Z,12.87
2019-04-07T22:33:10.617Z,12.84
2019-04-07T22:35:42.434Z,12.83
2019-04-07T22:38:09.819Z,12.85
2019-04-07T22:40:39.175Z,12.80
2019-04-07T22:43:08.014Z,12.84
2019-04-07T22:45:37.161Z,12.86
2019-04-07T22:48:08.253Z,12.77
2019-04-07T22:50:38.441Z,12.84
2019-04-07T22:53:07.380Z,12.76
2019-04-07T22:55:36.202Z,12.62
2019-04-07T22:58:05.570Z,12.66
2019-04-07T23:00:35.140Z,12.51
2019-04-07T23:03:04.288Z,12.56
2019-04-07T23:05:33.906Z,12.61
2019-04-07T23:08:02.715Z,12.52
2019-04-07T23:10:31.965Z,12.46
2019-04-07T23:13:01.486Z,12.46
2019-04-07T23:15:38.648Z,12.36
2019-04-07T23:18:00.731Z,12.39
2019-04-07T23:20:29.469Z,12.33
2019-04-07T23:22:58.450Z,12.19
2019-04-07T23:25:28.100Z,12.12
2019-04-07T23:27:56.799Z,11.98
2019-04-07T23:30:27.885Z,11.90
2019-04-07T23:32:56.543Z,11.86
2019-04-07T23:35:25.665Z,11.74
2019-04-07T23:37:55.396Z,11.64
2019-04-07T23:40:24.553Z,11.66
2019-04-07T23:42:53.305Z,11.75
2019-04-07T23:45:21.982Z,11.68
2019-04-07T23:47:50.709Z,11.64
2019-04-07T23:50:19.533Z,11.52
2019-04-07T23:52:48.297Z,11.47
2019-04-07T23:55:17.369Z,11.39
2019-04-07T23:57:46.544Z,11.40
